Time;durP1;ratioP1;P1;durP2;ratioP2;P2;SDS_P1;SDS_P2;PMS_P1;PMS_P2;Temp;Humidity;BMP_temperature;BMP_pressure;BME280_temperature;BME280_humidity;BME280_pressure;Samples;Min_cycle;Max_cycle;Signal;HPM_P1;HPM_P2
2021/09/13 00:00:04;;;;;;;5.28;4.50;;;;;;;16.33;97.03;98838.19;4987031;28;103225;-66
2021/09/13 00:02:38;;;;;;;4.05;3.75;;;;;;;16.47;96.27;98838.59;4991152;28;102635;-66
2021/09/13 00:05:10;;;;;;;5.28;4.13;;;;;;;16.53;95.53;98832.69;4992404;28;102613;-71
2021/09/13 00:07:38;;;;;;;3.17;2.97;;;;;;;16.62;95.13;98831.81;4982079;28;104474;-72
2021/09/13 00:10:07;;;;;;;2.83;2.63;;;;;;;16.72;93.90;98824.66;4986648;28;103269;-72
2021/09/13 00:12:36;;;;;;;2.80;2.60;;;;;;;16.77;92.57;98816.19;4988608;28;102698;-70
2021/09/13 00:15:08;;;;;;;3.10;2.70;;;;;;;16.78;92.46;98823.22;4985083;28;102657;-72
2021/09/13 00:17:37;;;;;;;3.83;3.40;;;;;;;16.74;92.44;98828.00;4984958;28;103361;-66
2021/09/13 00:20:07;;;;;;;4.90;3.90;;;;;;;16.71;92.07;98822.94;4982360;28;103702;-71
2021/09/13 00:22:37;;;;;;;4.00;3.70;;;;;;;16.60;93.69;98815.13;4971180;28;102963;-65
2021/09/13 00:25:06;;;;;;;4.15;3.75;;;;;;;16.57;93.65;98814.56;4984844;28;102763;-67
2021/09/13 00:27:34;;;;;;;5.28;4.38;;;;;;;16.60;93.37;98820.47;4987815;28;103043;-71
2021/09/13 00:30:07;;;;;;;5.18;4.68;;;;;;;16.50;94.06;98818.78;4987054;28;103190;-70
2021/09/13 00:32:35;;;;;;;5.55;5.15;;;;;;;16.24;95.63;98819.41;4989450;28;102623;-71
2021/09/13 00:35:05;;;;;;;5.90;5.35;;;;;;;16.16;96.84;98819.28;4983611;28;103952;-70
2021/09/13 00:37:33;;;;;;;6.07;5.30;;;;;;;16.00;98.97;98820.88;4968215;28;103245;-71
2021/09/13 00:40:09;;;;;;;8.93;6.57;;;;;;;16.07;98.29;98822.81;4984909;28;103327;-72
2021/09/13 00:42:37;;;;;;;6.13;4.88;;;;;;;16.13;98.20;98822.25;4983241;28;102613;-70
2021/09/13 00:45:07;;;;;;;6.43;5.50;;;;;;;15.89;99.21;98813.84;4984689;28;103833;-71
2021/09/13 00:47:35;;;;;;;4.20;3.83;;;;;;;16.13;98.46;98810.75;4988519;28;105087;-66
2021/09/13 00:50:04;;;;;;;4.68;4.30;;;;;;;16.23;96.41;98814.22;4986847;28;103250;-71
2021/09/13 00:52:33;;;;;;;5.55;5.05;;;;;;;16.20;96.18;98811.84;4988568;28;103119;-70
2021/09/13 00:55:01;;;;;;;4.93;4.53;;;;;;;16.11;97.59;98810.03;4974778;28;102927;-66
2021/09/13 00:57:31;;;;;;;5.25;4.72;;;;;;;16.09;97.32;98807.50;4986892;28;103330;-66
2021/09/13 00:59:59;;;;;;;5.45;4.63;;;;;;;16.06;97.09;98818.44;4986614;28;104161;-66
2021/09/13 01:02:27;;;;;;;5.22;4.72;;;;;;;16.12;95.98;98820.56;4984084;28;103186;-66
2021/09/13 01:04:56;;;;;;;6.72;5.65;;;;;;;15.59;98.43;98809.50;4971479;28;102711;-66
2021/09/13 01:07:24;;;;;;;6.35;5.75;;;;;;;15.27;100.00;98808.88;4966087;28;103622;-66
2021/09/13 01:09:52;;;;;;;7.10;6.50;;;;;;;15.19;100.00;98808.72;4968443;28;103260;-66
2021/09/13 01:12:21;;;;;;;5.95;5.43;;;;;;;15.21;100.00;98805.94;4969935;28;102667;-66
2021/09/13 01:14:50;;;;;;;6.70;6.07;;;;;;;15.31;100.00;98806.78;4971817;28;103906;-66
2021/09/13 01:17:18;;;;;;;7.30;6.60;;;;;;;15.14;100.00;98810.09;4987681;28;103719;-66
2021/09/13 01:19:47;;;;;;;7.57;6.78;;;;;;;15.14;100.00;98808.28;4987998;28;103278;-71
2021/09/13 01:22:19;;;;;;;5.97;5.38;;;;;;;15.36;100.00;98807.19;4992750;28;102817;-71
2021/09/13 01:25:00;;;;;;;7.10;6.45;;;;;;;15.15;100.00;98802.00;4973791;28;103020;-64
2021/09/13 01:27:28;;;;;;;5.15;4.70;;;;;;;15.23;100.00;98806.63;4982972;28;103960;-65
2021/09/13 01:29:57;;;;;;;8.00;5.43;;;;;;;15.24;100.00;98808.31;4966980;28;105050;-65
2021/09/13 01:32:25;;;;;;;5.85;5.30;;;;;;;15.25;100.00;98812.66;4984639;28;102800;-71
2021/09/13 01:34:57;;;;;;;6.88;5.57;;;;;;;15.18;100.00;98806.19;4985376;28;102714;-71
2021/09/13 01:37:28;;;;;;;5.93;5.43;;;;;;;15.07;100.00;98813.31;4986283;28;106101;-66
2021/09/13 01:40:08;;;;;;;6.38;5.78;;;;;;;15.04;100.00;98810.09;4972643;28;103315;-71
2021/09/13 01:42:37;;;;;;;7.32;5.28;;;;;;;15.02;100.00;98799.56;4975074;28;102657;-66
2021/09/13 01:45:07;;;;;;;6.22;5.60;;;;;;;14.89;100.00;98795.47;4992071;28;102736;-66
2021/09/13 01:47:41;;;;;;;5.38;4.97;;;;;;;14.95;100.00;98802.94;4967736;28;103339;-65
2021/09/13 01:50:10;;;;;;;6.32;5.82;;;;;;;14.86;100.00;98806.38;4965825;28;103432;-65
2021/09/13 01:52:39;;;;;;;9.30;6.15;;;;;;;14.79;100.00;98805.25;4968079;28;103042;-69
2021/09/13 01:55:09;;;;;;;6.45;5.85;;;;;;;14.75;100.00;98799.34;4971715;28;102671;-65
2021/09/13 01:57:38;;;;;;;4.05;3.67;;;;;;;14.97;100.00;98795.63;4970768;28;105358;-65
2021/09/13 02:00:08;;;;;;;3.83;3.42;;;;;;;15.17;100.00;98794.72;4967275;28;103177;-70
2021/09/13 02:02:46;;;;;;;4.70;4.40;;;;;;;15.21;100.00;98797.94;4977421;28;102864;-70
2021/09/13 02:05:20;;;;;;;4.93;4.50;;;;;;;15.14;100.00;98791.47;4966382;28;104330;-65
2021/09/13 02:07:54;;;;;;;4.25;3.95;;;;;;;15.28;100.00;98785.75;4972407;28;105117;-70
2021/09/13 02:10:25;;;;;;;3.50;3.20;;;;;;;15.40;99.58;98784.66;4989422;28;103399;-65
2021/09/13 02:12:53;;;;;;;3.90;3.50;;;;;;;15.48;98.58;98787.50;4992535;28;102735;-65
2021/09/13 02:15:27;;;;;;;4.55;4.15;;;;;;;15.48;97.12;98784.84;4962390;28;102694;-70
2021/09/13 02:17:55;;;;;;;4.50;4.15;;;;;;;15.26;99.55;98785.06;4983862;28;103302;-65
2021/09/13 02:20:23;;;;;;;6.63;5.10;;;;;;;15.20;99.36;98790.94;4972685;28;104478;-65
2021/09/13 02:22:51;;;;;;;3.90;3.60;;;;;;;15.10;99.91;98783.75;4968621;28;104890;-65
2021/09/13 02:25:19;;;;;;;5.25;4.75;;;;;;;14.91;100.00;98788.19;4971764;28;102919;-65
2021/09/13 02:27:52;;;;;;;4.93;4.43;;;;;;;15.00;100.00;98787.38;4969665;28;104165;-70
2021/09/13 02:30:20;;;;;;;5.50;5.10;;;;;;;14.84;100.00;98787.06;4987503;28;103327;-65
2021/09/13 02:32:48;;;;;;;6.03;4.67;;;;;;;14.83;100.00;98786.22;4959577;28;102729;-70
2021/09/13 02:35:17;;;;;;;4.33;3.93;;;;;;;14.95;100.00;98784.31;4965866;28;102853;-70
2021/09/13 02:37:45;;;;;;;3.80;3.50;;;;;;;15.12;100.00;98786.31;4971351;28;104097;-70
2021/09/13 02:40:13;;;;;;;3.07;2.83;;;;;;;15.24;98.39;98785.19;4968665;28;105117;-65
2021/09/13 02:42:42;;;;;;;5.30;4.10;;;;;;;15.23;97.07;98794.16;4968437;28;103104;-65
2021/09/13 02:45:13;;;;;;;4.50;4.10;;;;;;;15.14;97.93;98784.34;4963867;28;102978;-65
2021/09/13 02:47:41;;;;;;;4.60;3.67;;;;;;;15.11;97.90;98784.59;4967592;28;104092;-69
2021/09/13 02:50:11;;;;;;;5.20;4.67;;;;;;;14.86;99.80;98787.78;4969329;28;106368;-70
2021/09/13 02:52:40;;;;;;;5.10;4.60;;;;;;;14.91;99.95;98788.19;4982194;28;102615;-70
2021/09/13 02:55:10;;;;;;;4.40;4.00;;;;;;;14.79;100.00;98776.81;4968896;28;103014;-70
2021/09/13 02:57:40;;;;;;;4.87;4.47;;;;;;;14.94;99.68;98777.28;4964529;28;103257;-70
2021/09/13 03:00:12;;;;;;;3.83;2.90;;;;;;;15.10;98.80;98782.94;4978135;28;103470;-70
2021/09/13 03:02:49;;;;;;;6.03;5.27;;;;;;;14.69;100.00;98783.09;4972093;28;102668;-69
2021/09/13 03:05:17;;;;;;;6.17;5.67;;;;;;;14.46;100.00;98788.59;4993783;28;103831;-70
2021/09/13 03:07:46;;;;;;;6.40;5.80;;;;;;;14.39;100.00;98786.59;4990196;28;104164;-70
2021/09/13 03:10:15;;;;;;;6.90;5.43;;;;;;;14.38;100.00;98780.44;4987236;28;103210;-69
2021/09/13 03:12:43;;;;;;;5.27;4.87;;;;;;;14.31;100.00;98773.13;4991591;28;102673;-70
2021/09/13 03:15:13;;;;;;;7.37;5.90;;;;;;;14.14;100.00;98789.66;4969950;28;102818;-70
2021/09/13 03:17:46;;;;;;;6.03;5.53;;;;;;;14.18;100.00;98781.28;4972147;28;103789;-72
2021/09/13 03:20:15;;;;;;;6.00;5.10;;;;;;;14.21;100.00;98783.69;4992994;28;103266;-65
2021/09/13 03:22:43;;;;;;;6.50;5.90;;;;;;;14.09;100.00;98789.22;4973535;28;102803;-65
2021/09/13 03:25:12;;;;;;;7.87;6.93;;;;;;;14.01;100.00;98776.56;4978789;28;103643;-65
2021/09/13 03:27:40;;;;;;;5.60;5.03;;;;;;;14.13;100.00;98782.66;4984963;28;105154;-65
2021/09/13 03:30:10;;;;;;;4.30;4.00;;;;;;;14.38;100.00;98780.44;4989193;28;103345;-69
2021/09/13 03:32:40;;;;;;;4.00;3.70;;;;;;;14.66;100.00;98791.31;4968663;28;103035;-65
2021/09/13 03:35:09;;;;;;;4.13;3.80;;;;;;;14.82;100.00;98779.22;4990976;28;104615;-71
2021/09/13 03:37:40;;;;;;;4.10;3.47;;;;;;;14.95;100.00;98779.81;4971832;28;105156;-66
2021/09/13 03:40:09;;;;;;;4.43;3.90;;;;;;;14.90;100.00;98773.22;4970309;28;104327;-67
2021/09/13 03:42:38;;;;;;;3.60;3.30;;;;;;;15.00;100.00;98779.41;4971804;28;102736;-66
2021/09/13 03:45:07;;;;;;;7.40;5.53;;;;;;;14.69;100.00;98781.28;4972268;28;102811;-66
2021/09/13 03:48:07;;;;;;;6.63;5.40;;;;;;;14.46;100.00;98783.28;4990688;28;103410;-71
2021/09/13 03:50:39;;;;;;;4.70;4.30;;;;;;;14.69;100.00;98783.09;4972936;28;103374;-71
2021/09/13 03:53:07;;;;;;;3.83;3.43;;;;;;;14.82;100.00;98778.41;4974118;28;102678;-69
2021/09/13 03:55:36;;;;;;;5.90;5.40;;;;;;;14.68;100.00;98768.13;4969867;28;104137;-71
2021/09/13 03:58:06;;;;;;;8.93;5.50;;;;;;;14.58;100.00;98769.91;4967146;28;103359;-70
2021/09/13 04:00:36;;;;;;;5.10;4.60;;;;;;;14.73;100.00;98773.88;4983691;28;103267;-70
2021/09/13 04:03:14;;;;;;;5.57;4.90;;;;;;;14.78;100.00;98771.66;4971696;28;102944;-64
2021/09/13 04:05:45;;;;;;;6.03;5.43;;;;;;;14.53;100.00;98778.28;4992457;28;102683;-63
2021/09/13 04:08:59;;;;;;;7.60;6.60;;;;;;;14.39;100.00;98771.50;4938859;28;103265;-62
2021/09/13 04:11:53;;;;;;;6.67;5.97;;;;;;;14.30;100.00;98768.75;4989134;28;103163;-62
2021/09/13 04:14:48;;;;;;;6.50;5.90;;;;;;;13.93;100.00;98763.94;4972820;28;102691;-63
2021/09/13 04:17:35;;;;;;;7.60;6.63;;;;;;;13.84;100.00;98758.56;4986728;28;102698;-63
2021/09/13 04:20:23;;;;;;;5.83;5.33;;;;;;;14.08;100.00;98767.13;4986817;28;103258;-71
2021/09/13 04:23:14;;;;;;;5.93;5.43;;;;;;;14.25;100.00;98763.00;4974790;28;103357;-63
2021/09/13 04:26:00;;;;;;;7.37;6.47;;;;;;;14.20;100.00;98752.78;4986090;28;102659;-62
2021/09/13 04:29:07;;;;;;;4.73;4.33;;;;;;;14.44;100.00;98763.13;4949543;28;102862;-63
2021/09/13 04:31:53;;;;;;;3.60;3.30;;;;;;;14.62;100.00;98761.53;4950495;28;104468;-62
2021/09/13 04:34:42;;;;;;;9.40;6.30;;;;;;;14.24;100.00;98762.16;4965980;28;103136;-62
2021/09/13 04:37:40;;;;;;;7.43;6.70;;;;;;;14.14;100.00;98763.94;4956913;28;102960;-62
2021/09/13 04:40:28;;;;;;;8.53;6.20;;;;;;;14.26;100.00;98759.38;4968664;28;103519;-70
2021/09/13 04:43:08;;;;;;;6.50;5.30;;;;;;;14.43;100.00;98767.59;4989032;28;103449;-71
2021/09/13 04:45:47;;;;;;;5.50;5.00;;;;;;;14.51;100.00;98765.09;4985376;28;103036;-71
2021/09/13 04:48:34;;;;;;;4.97;4.47;;;;;;;14.75;100.00;98771.91;4987903;28;102758;-71
2021/09/13 04:51:23;;;;;;;6.57;5.70;;;;;;;14.52;100.00;98760.63;4972995;28;103026;-70
2021/09/13 04:54:08;;;;;;;5.60;5.10;;;;;;;14.48;100.00;98768.03;4970248;28;103087;-70
2021/09/13 04:56:37;;;;;;;6.07;5.37;;;;;;;14.61;100.00;98769.63;4961460;28;105560;-71
2021/09/13 04:59:08;;;;;;;3.90;3.50;;;;;;;14.83;100.00;98766.75;4969180;28;102685;-63
2021/09/13 05:01:36;;;;;;;3.43;3.13;;;;;;;15.00;100.00;98768.75;4971586;28;104085;-70
2021/09/13 05:04:06;;;;;;;5.60;5.00;;;;;;;14.91;100.00;98773.09;4983235;28;103972;-70
2021/09/13 05:06:36;;;;;;;5.70;4.80;;;;;;;14.67;100.00;98772.59;4973454;28;103345;-70
2021/09/13 05:09:08;;;;;;;5.03;4.53;;;;;;;14.62;100.00;98771.31;4960694;28;102772;-70
2021/09/13 05:11:37;;;;;;;8.03;5.37;;;;;;;14.63;100.00;98768.50;4956272;28;103737;-70
2021/09/13 05:14:05;;;;;;;5.83;5.30;;;;;;;14.57;100.00;98766.38;4987286;28;105282;-69
2021/09/13 05:16:34;;;;;;;7.27;4.30;;;;;;;14.43;100.00;98770.25;4967947;28;103374;-70
2021/09/13 05:19:02;;;;;;;5.63;5.13;;;;;;;14.38;100.00;98775.13;4965095;28;102752;-70
2021/09/13 05:21:32;;;;;;;5.87;4.77;;;;;;;14.47;100.00;98769.03;4985729;28;103837;-70
2021/09/13 05:24:02;;;;;;;6.40;5.80;;;;;;;14.44;100.00;98774.59;4986697;27;105481;-69
2021/09/13 05:26:33;;;;;;;4.97;4.47;;;;;;;14.47;100.00;98769.03;4984528;28;103243;-70
2021/09/13 05:29:02;;;;;;;6.60;5.00;;;;;;;14.58;100.00;98776.06;4980507;28;103269;-69
2021/09/13 05:31:30;;;;;;;4.43;4.00;;;;;;;14.63;100.00;98779.16;4967360;28;104437;-70
2021/09/13 05:33:59;;;;;;;4.37;3.97;;;;;;;14.79;100.00;98778.66;4968315;28;105457;-69
2021/09/13 05:36:27;;;;;;;6.30;5.00;;;;;;;14.79;100.00;98787.44;4984321;28;103751;-70
2021/09/13 05:38:55;;;;;;;3.60;3.30;;;;;;;14.97;100.00;98785.84;4984592;28;103306;-70
2021/09/13 05:41:45;;;;;;;4.63;3.83;;;;;;;15.18;100.00;98796.41;4969890;28;104423;-74
2021/09/13 05:44:15;;;;;;;5.13;4.63;;;;;;;14.93;100.00;98788.94;4969410;28;103406;-70
2021/09/13 05:46:44;;;;;;;5.47;5.03;;;;;;;15.00;100.00;98792.72;4967649;28;103422;-70
2021/09/13 05:49:13;;;;;;;4.23;3.93;;;;;;;15.02;100.00;98790.75;4985378;28;102771;-70
2021/09/13 05:51:46;;;;;;;4.70;4.30;;;;;;;15.04;100.00;98797.59;4985764;28;103847;-71
2021/09/13 05:54:22;;;;;;;4.80;3.70;;;;;;;15.20;100.00;98797.09;4972332;28;103484;-70
2021/09/13 05:56:53;;;;;;;6.00;5.30;;;;;;;14.96;100.00;98797.44;4969347;28;103327;-71
2021/09/13 05:59:22;;;;;;;6.33;5.73;;;;;;;14.90;100.00;98794.50;4986310;28;102818;-69
2021/09/13 06:01:59;;;;;;;8.67;5.07;;;;;;;14.88;100.00;98796.44;4968102;28;104058;-70
2021/09/13 06:04:29;;;;;;;5.63;5.00;;;;;;;14.91;100.00;98799.69;4990159;28;103385;-64
2021/09/13 06:06:59;;;;;;;6.33;5.77;;;;;;;14.76;100.00;98805.53;4987362;28;103332;-64
2021/09/13 06:09:29;;;;;;;6.03;4.57;;;;;;;14.84;100.00;98797.72;4971105;28;102729;-64
2021/09/13 06:11:59;;;;;;;6.97;6.27;;;;;;;14.73;100.00;98803.13;4971657;28;102836;-64
2021/09/13 06:14:34;;;;;;;9.23;6.37;;;;;;;14.73;100.00;98800.47;4971517;28;103512;-71
2021/09/13 06:17:02;;;;;;;6.97;5.57;;;;;;;14.69;100.00;98807.03;4966401;28;103243;-69
2021/09/13 06:19:38;;;;;;;7.13;6.03;;;;;;;14.78;100.00;98807.06;4985296;28;103271;-69
2021/09/13 06:22:07;;;;;;;5.93;5.43;;;;;;;14.83;100.00;98807.50;4968444;28;103653;-69
2021/09/13 06:24:39;;;;;;;5.83;4.63;;;;;;;15.06;100.00;98797.50;4978698;28;104566;-69
2021/09/13 06:27:13;;;;;;;4.90;4.50;;;;;;;15.27;100.00;98806.19;4970871;28;103587;-69
2021/09/13 06:29:41;;;;;;;5.87;4.93;;;;;;;15.35;100.00;98803.72;4967944;28;103159;-69
2021/09/13 06:32:10;;;;;;;3.67;3.37;;;;;;;15.53;100.00;98802.06;4964590;28;103402;-69
2021/09/13 06:34:39;;;;;;;3.47;3.27;;;;;;;15.71;100.00;98809.38;4970009;28;104182;-69
2021/09/13 06:37:07;;;;;;;4.13;3.77;;;;;;;15.78;99.00;98811.31;4951989;28;103237;-69
2021/09/13 06:39:36;;;;;;;5.53;5.10;;;;;;;15.42;100.00;98810.16;4962688;28;102708;-67
2021/09/13 06:42:05;;;;;;;5.30;4.80;;;;;;;15.51;100.00;98809.38;4968783;28;102809;-68
2021/09/13 06:44:38;;;;;;;4.03;3.73;;;;;;;15.78;100.00;98800.66;4966196;28;105207;-69
2021/09/13 06:47:08;;;;;;;5.07;4.57;;;;;;;15.98;98.91;98809.47;4961936;28;103269;-69
2021/09/13 06:49:37;;;;;;;3.70;3.40;;;;;;;16.32;97.36;98816.03;4961289;28;103087;-70
2021/09/13 06:52:06;;;;;;;3.33;3.13;;;;;;;16.60;95.68;98808.94;4969762;28;104211;-68
2021/09/13 06:54:34;;;;;;;2.93;2.73;;;;;;;16.87;94.00;98816.16;4962065;28;104325;-69
2021/09/13 06:57:02;;;;;;;5.10;4.03;;;;;;;16.87;94.07;98813.50;4968735;28;103276;-69
2021/09/13 06:59:31;;;;;;;6.63;4.13;;;;;;;17.04;92.95;98816.19;4962458;28;102590;-70
2021/09/13 07:02:00;;;;;;;4.63;4.22;;;;;;;17.19;92.85;98820.06;4969279;28;103998;-70
2021/09/13 07:04:30;;;;;;;6.97;5.93;;;;;;;17.35;90.29;98816.72;4970523;28;103357;-70
2021/09/13 07:06:58;;;;;;;5.88;5.28;;;;;;;17.51;90.51;98811.56;4968098;28;103238;-70
2021/09/13 07:09:26;;;;;;;5.47;4.97;;;;;;;17.73;88.91;98811.13;4968218;28;102638;-69
2021/09/13 07:11:56;;;;;;;6.13;4.50;;;;;;;17.86;88.53;98814.25;4962442;28;102767;-69
2021/09/13 07:14:25;;;;;;;6.93;5.22;;;;;;;18.06;86.70;98816.75;4962717;28;103722;-69
2021/09/13 07:16:53;;;;;;;9.25;5.15;;;;;;;18.13;86.80;98817.81;4959010;28;103330;-70
2021/09/13 07:19:24;;;;;;;9.70;5.10;;;;;;;18.36;86.27;98813.63;4968970;28;102695;-72
2021/09/13 07:21:52;;;;;;;9.02;6.15;;;;;;;18.37;85.57;98812.63;4962366;28;104102;-70
2021/09/13 07:24:20;;;;;;;5.40;4.18;;;;;;;18.73;85.64;98814.22;4963970;28;103317;-64
2021/09/13 07:26:49;;;;;;;6.72;6.10;;;;;;;18.47;84.71;98816.03;4961752;28;103226;-64
2021/09/13 07:29:17;;;;;;;6.55;5.90;;;;;;;17.97;88.42;98818.50;4967977;28;102625;-64
2021/09/13 07:31:45;;;;;;;5.55;5.05;;;;;;;18.55;86.41;98817.97;4957232;28;104137;-64
2021/09/13 07:34:13;;;;;;;7.93;5.88;;;;;;;18.28;86.64;98810.91;4965186;28;103914;-64
2021/09/13 07:36:43;;;;;;;6.50;5.80;;;;;;;18.72;84.83;98815.25;4965043;28;103214;-65
2021/09/13 07:39:11;;;;;;;6.57;5.95;;;;;;;19.26;82.61;98813.09;4966009;28;102666;-63
2021/09/13 07:41:39;;;;;;;7.35;6.60;;;;;;;19.17;81.96;98822.97;4963102;28;102641;-64
2021/09/13 07:44:07;;;;;;;5.18;4.68;;;;;;;19.74;80.64;98823.97;4942260;28;103170;-64
2021/09/13 07:46:35;;;;;;;6.75;5.18;;;;;;;20.17;78.41;98826.34;4964859;28;103213;-63
2021/09/13 07:49:03;;;;;;;5.20;4.70;;;;;;;20.44;77.21;98832.38;4971521;28;102999;-64
2021/09/13 07:51:31;;;;;;;6.47;5.97;;;;;;;19.94;78.65;98825.34;4970734;28;102608;-65
2021/09/13 07:54:00;;;;;;;7.40;6.63;;;;;;;20.32;76.25;98833.75;4967804;28;103300;-64
2021/09/13 07:56:29;;;;;;;6.13;5.40;;;;;;;20.90;75.87;98833.44;4972412;28;103391;-64
2021/09/13 07:58:57;;;;;;;5.57;5.03;;;;;;;21.51;73.80;98832.69;4969186;28;102677;-64
2021/09/13 08:01:25;;;;;;;5.18;4.68;;;;;;;21.69;73.85;98841.34;4968962;28;102980;-64
2021/09/13 08:03:54;;;;;;;6.25;5.68;;;;;;;21.72;71.70;98835.63;4968887;28;103397;-71
2021/09/13 08:06:22;;;;;;;4.40;4.00;;;;;;;21.92;71.87;98839.53;4968416;28;103322;-65
2021/09/13 08:08:51;;;;;;;5.20;4.45;;;;;;;22.23;70.38;98840.28;4947403;28;102638;-64
2021/09/13 08:11:20;;;;;;;5.97;4.32;;;;;;;22.49;69.08;98835.34;4965796;28;102675;-65
2021/09/13 08:13:50;;;;;;;4.88;4.38;;;;;;;23.10;68.26;98833.38;4966621;28;103325;-65
2021/09/13 08:16:18;;;;;;;3.97;3.60;;;;;;;23.15;67.99;98832.81;4969371;28;103190;-65
2021/09/13 08:18:46;;;;;;;6.32;4.15;;;;;;;23.48;68.01;98836.78;4972530;28;102606;-66
2021/09/13 08:21:18;;;;;;;5.07;4.18;;;;;;;23.10;66.79;98846.84;4972200;28;102720;-66
2021/09/13 08:23:47;;;;;;;4.88;4.43;;;;;;;21.16;69.97;98844.81;4971494;28;104076;-72
2021/09/13 08:26:16;;;;;;;3.92;3.47;;;;;;;23.12;69.06;98842.09;4972600;28;103277;-71
2021/09/13 08:28:46;;;;;;;3.35;3.05;;;;;;;23.82;64.71;98842.38;4973157;28;102666;-71
2021/09/13 08:31:14;;;;;;;5.07;3.60;;;;;;;23.93;66.30;98847.25;4968451;28;102718;-65
2021/09/13 08:33:42;;;;;;;4.50;3.00;;;;;;;24.09;62.85;98841.63;4963854;28;103385;-65
2021/09/13 08:36:10;;;;;;;3.92;3.63;;;;;;;22.96;66.37;98847.69;4961796;28;103172;-70
2021/09/13 08:38:38;;;;;;;5.55;3.45;;;;;;;24.18;65.71;98842.34;4969045;28;102641;-69
2021/09/13 08:41:07;;;;;;;4.65;3.50;;;;;;;24.27;62.18;98843.88;4967991;28;102745;-66
2021/09/13 08:43:35;;;;;;;5.57;3.70;;;;;;;23.80;62.00;98840.88;4967592;28;103248;-69
2021/09/13 08:46:07;;;;;;;4.18;2.97;;;;;;;24.23;63.03;98842.59;4965175;28;103372;-70
2021/09/13 08:48:38;;;;;;;3.38;2.30;;;;;;;25.09;60.80;98838.69;4974396;28;103138;-70
2021/09/13 08:51:18;;;;;;;5.55;2.90;;;;;;;24.37;60.66;98833.56;4984430;28;102775;-71
2021/09/13 08:53:49;;;;;;;4.03;3.03;;;;;;;24.60;59.02;98844.97;4967079;28;103274;-64
2021/09/13 08:56:17;;;;;;;3.85;2.58;;;;;;;25.00;58.66;98839.88;4974347;28;103249;-64
2021/09/13 08:58:47;;;;;;;2.83;2.47;;;;;;;25.61;56.76;98836.22;4962230;28;102732;-64
2021/09/13 09:01:17;;;;;;;2.65;2.20;;;;;;;25.09;60.76;98839.53;4971489;28;103783;-64
2021/09/13 09:03:47;;;;;;;2.85;2.65;;;;;;;25.07;57.48;98841.56;4965260;28;103240;-64
2021/09/13 09:06:33;;;;;;;3.72;2.40;;;;;;;25.64;56.90;98838.53;4975155;28;103368;-64
2021/09/13 09:09:04;;;;;;;3.53;2.92;;;;;;;25.85;57.88;98851.91;4965937;28;102734;-64
2021/09/13 09:12:00;;;;;;;2.83;2.60;;;;;;;26.16;55.50;98843.25;4947518;28;102769;-64
2021/09/13 09:14:35;;;;;;;3.10;2.90;;;;;;;25.93;57.77;98843.63;4961938;28;103434;-63
2021/09/13 09:17:07;;;;;;;3.15;2.95;;;;;;;25.92;55.35;98847.34;4969762;28;103011;-63
2021/09/13 09:19:36;;;;;;;2.85;2.65;;;;;;;26.35;55.56;98850.56;4970217;28;102638;-63
2021/09/13 09:22:22;;;;;;;2.75;2.55;;;;;;;27.05;54.34;98844.50;4972717;28;102766;-63
2021/09/13 09:24:51;;;;;;;2.58;2.22;;;;;;;27.12;55.10;98838.22;4969437;28;103301;-69
2021/09/13 09:27:19;;;;;;;3.63;3.22;;;;;;;25.78;55.55;98840.25;4965016;28;103206;-63
2021/09/13 09:29:48;;;;;;;4.20;3.80;;;;;;;24.09;58.82;98843.47;4971498;28;102655;-64
2021/09/13 09:32:25;;;;;;;3.72;3.42;;;;;;;24.62;57.60;98834.81;4964650;28;103757;-64
2021/09/13 09:34:53;;;;;;;3.65;3.00;;;;;;;25.70;55.70;98826.91;4961457;28;104083;-64
2021/09/13 09:37:24;;;;;;;3.92;3.00;;;;;;;26.61;54.71;98825.34;4964486;28;102991;-69
2021/09/13 09:39:56;;;;;;;3.67;2.40;;;;;;;26.97;53.53;98822.19;4972133;28;102770;-70
2021/09/13 09:42:30;;;;;;;3.60;2.80;;;;;;;26.35;53.77;98814.53;4967110;28;102649;-71
2021/09/13 09:45:00;;;;;;;3.28;2.63;;;;;;;26.94;53.57;98817.19;4972565;28;103382;-69
2021/09/13 09:47:29;;;;;;;4.25;2.75;;;;;;;27.15;53.49;98826.91;4968598;28;103243;-70
2021/09/13 09:49:59;;;;;;;3.10;2.80;;;;;;;27.24;52.32;98822.94;4970341;28;102975;-69
2021/09/13 09:52:36;;;;;;;3.90;2.42;;;;;;;27.79;51.45;98822.28;4970819;28;102708;-63
2021/09/13 09:55:16;;;;;;;3.30;2.92;;;;;;;26.92;53.20;98822.00;4968008;28;103282;-65
2021/09/13 09:57:45;;;;;;;3.63;2.88;;;;;;;27.04;52.62;98821.13;4970292;28;103221;-66
2021/09/13 10:00:25;;;;;;;3.45;3.15;;;;;;;26.48;53.76;98828.91;4958960;28;102613;-65
2021/09/13 10:02:56;;;;;;;3.63;3.30;;;;;;;25.79;54.95;98817.56;4959754;28;104129;-65
2021/09/13 10:05:26;;;;;;;3.25;2.80;;;;;;;26.43;54.93;98817.03;4968854;28;103932;-65
2021/09/13 10:07:54;;;;;;;3.13;2.88;;;;;;;26.67;54.24;98816.38;4966469;28;103233;-64
2021/09/13 10:10:28;;;;;;;4.85;4.00;;;;;;;25.32;56.11;98814.84;4964703;28;102599;-65
2021/09/13 10:12:57;;;;;;;4.30;3.15;;;;;;;26.66;55.36;98812.00;4972259;28;103094;-66
2021/09/13 10:15:26;;;;;;;4.25;2.50;;;;;;;27.23;53.28;98813.16;4963569;28;103244;-66
2021/09/13 10:18:00;;;;;;;6.32;3.45;;;;;;;27.10;52.11;98810.47;4961564;28;103239;-65
2021/09/13 10:20:28;;;;;;;4.22;3.42;;;;;;;27.76;51.88;98806.47;4964607;28;102705;-65
2021/09/13 10:22:57;;;;;;;4.13;3.45;;;;;;;27.70;50.80;98804.63;4966021;28;102743;-65
2021/09/13 10:25:30;;;;;;;4.40;2.58;;;;;;;27.69;51.91;98804.81;4969049;28;103264;-65
2021/09/13 10:28:04;;;;;;;4.22;3.92;;;;;;;27.34;51.10;98794.31;4962802;28;103290;-65
2021/09/13 10:30:34;;;;;;;4.03;3.72;;;;;;;26.98;53.22;98788.59;4969107;28;103005;-71
2021/09/13 10:33:13;;;;;;;3.10;2.90;;;;;;;27.06;54.60;98791.06;4967941;28;104082;-65
2021/09/13 10:35:56;;;;;;;4.35;3.10;;;;;;;26.28;55.42;98786.59;4967510;28;104039;-71
2021/09/13 10:38:42;;;;;;;3.03;2.72;;;;;;;26.84;55.35;98782.38;4964182;28;103013;-71
2021/09/13 10:41:11;;;;;;;3.30;2.97;;;;;;;27.51;52.69;98781.09;4965910;28;102675;-72
2021/09/13 10:44:05;;;;;;;4.80;4.40;;;;;;;26.53;52.67;98773.28;4968995;28;104082;-72
2021/09/13 10:47:00;;;;;;;5.03;3.00;;;;;;;27.11;52.96;98769.59;4971774;28;103180;-72
2021/09/13 10:49:30;;;;;;;5.00;4.03;;;;;;;25.56;55.43;98778.38;4967272;28;103182;-70
2021/09/13 10:52:35;;;;;;;4.07;3.47;;;;;;;26.14;54.52;98769.53;4975301;28;102747;-72
2021/09/13 10:55:30;;;;;;;4.15;3.63;;;;;;;26.01;56.74;98771.38;4967589;28;102757;-72
2021/09/13 10:58:03;;;;;;;3.90;2.90;;;;;;;27.10;52.91;98765.22;4966621;28;103893;-66
2021/09/13 11:00:57;;;;;;;3.80;3.33;;;;;;;26.72;54.43;98761.56;4971828;28;103222;-65
2021/09/13 11:03:43;;;;;;;3.75;3.33;;;;;;;26.04;55.38;98765.53;4968490;28;102789;-65
2021/09/13 11:06:43;;;;;;;3.55;3.22;;;;;;;26.37;54.67;98763.69;4965996;28;104130;-65
2021/09/13 11:09:21;;;;;;;4.05;3.70;;;;;;;26.56;55.23;98756.56;4963388;28;103536;-65
2021/09/13 11:11:57;;;;;;;5.32;3.03;;;;;;;26.21;54.54;98756.84;4968853;28;103252;-70
2021/09/13 11:14:27;;;;;;;3.65;3.15;;;;;;;26.08;55.44;98745.16;4971588;28;104666;-73
2021/09/13 11:16:57;;;;;;;3.95;3.65;;;;;;;26.70;53.42;98748.22;4965280;28;102663;-71
2021/09/13 11:19:27;;;;;;;3.53;3.05;;;;;;;27.69;51.92;98740.53;4950044;28;104177;-72
2021/09/13 11:21:58;;;;;;;4.60;3.50;;;;;;;27.20;54.11;98743.09;4969870;28;103387;-73
2021/09/13 11:24:30;;;;;;;3.58;3.28;;;;;;;26.22;55.94;98738.69;4974623;28;102632;-71
2021/09/13 11:27:05;;;;;;;3.53;3.25;;;;;;;27.62;51.92;98737.84;4971337;28;102702;-73
2021/09/13 11:29:35;;;;;;;3.00;2.80;;;;;;;28.42;50.23;98730.75;4970976;28;104206;-73
2021/09/13 11:32:05;;;;;;;3.40;3.20;;;;;;;28.97;49.45;98720.75;4973706;28;103285;-73
2021/09/13 11:34:39;;;;;;;3.38;3.08;;;;;;;29.13;47.24;98720.16;4971696;28;102807;-73
2021/09/13 11:37:17;;;;;;;4.65;4.20;;;;;;;27.67;50.36;98726.34;4971251;28;102992;-72
2021/09/13 11:40:06;;;;;;;3.75;3.45;;;;;;;28.13;51.40;98723.28;4972971;28;103923;-73
2021/09/13 11:42:36;;;;;;;5.40;4.13;;;;;;;28.49;50.52;98722.56;4972113;28;103284;-73
2021/09/13 11:45:07;;;;;;;6.75;3.90;;;;;;;28.16;50.11;98720.97;4962814;28;102617;-72